createdAt,value
2018-10-16T00:01:24.870Z,61.62
2018-10-16T00:03:53.056Z,61.55
2018-10-16T00:06:20.983Z,61.06
2018-10-16T00:08:48.374Z,60.98
2018-10-16T00:11:15.844Z,61.17
2018-10-16T00:13:43.294Z,60.94
2018-10-16T00:16:10.855Z,61.16
2018-10-16T00:18:38.846Z,61.48
2018-10-16T00:23:56.417Z,62.09
2018-10-16T00:26:23.706Z,62.11
2018-10-16T00:28:51.626Z,62.11
2018-10-16T00:31:19.714Z,61.47
2018-10-16T00:33:47.148Z,61.55
2018-10-16T00:36:14.790Z,61.69
2018-10-16T00:38:42.125Z,62.48
2018-10-16T00:41:10.542Z,62.91
2018-10-16T00:43:37.941Z,63.09
2018-10-16T00:46:05.663Z,63.81
2018-10-16T00:48:33.109Z,64.06
2018-10-16T00:51:00.553Z,63.98
2018-10-16T00:53:28.538Z,64.61
2018-10-16T00:55:55.847Z,64.97
2018-10-16T00:58:23.255Z,65.05
2018-10-16T01:00:50.967Z,65.23
2018-10-16T01:03:18.406Z,66.02
2018-10-16T01:05:46.132Z,65.88
2018-10-16T01:08:14.081Z,65.54
2018-10-16T01:10:59.873Z,65.60
2018-10-16T01:13:27.466Z,66.03
2018-10-16T01:15:54.858Z,66.09
2018-10-16T01:18:22.324Z,66.37
2018-10-16T01:20:49.801Z,66.06
2018-10-16T01:23:17.193Z,66.16
2018-10-16T01:25:44.700Z,66.54
2018-10-16T01:28:13.295Z,66.54
2018-10-16T01:30:40.845Z,66.71
2018-10-16T01:33:08.488Z,66.87
2018-10-16T01:35:36.118Z,66.61
2018-10-16T01:38:03.673Z,66.64
2018-10-16T01:40:31.028Z,66.69
2018-10-16T01:42:58.640Z,66.99
2018-10-16T01:45:26.954Z,67.19
2018-10-16T01:47:54.352Z,67.57
2018-10-16T01:50:21.700Z,67.52
2018-10-16T01:52:49.037Z,67.01
2018-10-16T01:55:16.326Z,67.00
2018-10-16T01:57:43.813Z,66.81
2018-10-16T02:00:11.439Z,66.93
2018-10-16T02:02:39.334Z,66.68
2018-10-16T02:05:07.117Z,66.22
2018-10-16T02:07:34.562Z,65.47
2018-10-16T02:10:02.114Z,65.26
2018-10-16T02:12:29.562Z,65.29
2018-10-16T02:14:57.060Z,64.67
2018-10-16T02:17:24.353Z,64.63
2018-10-16T02:19:51.671Z,63.51
2018-10-16T02:22:20.007Z,63.69
2018-10-16T02:24:48.293Z,64.05
2018-10-16T02:27:15.706Z,64.20
2018-10-16T02:29:43.107Z,63.89
2018-10-16T02:32:10.488Z,63.65
2018-10-16T02:34:38.064Z,63.39
2018-10-16T02:37:05.757Z,63.49
2018-10-16T02:39:33.128Z,62.72
2018-10-16T02:42:00.468Z,62.10
2018-10-16T02:44:27.796Z,61.98
2018-10-16T02:46:55.871Z,62.01
2018-10-16T02:49:23.436Z,62.06
2018-10-16T02:51:50.930Z,62.83
2018-10-16T02:54:18.290Z,62.91
2018-10-16T02:56:46.335Z,63.68
2018-10-16T02:59:14.375Z,63.75
2018-10-16T03:01:42.425Z,64.53
2018-10-16T03:04:09.800Z,64.70
2018-10-16T03:06:37.164Z,64.47
2018-10-16T03:09:06.676Z,64.71
2018-10-16T03:11:34.276Z,65.59
2018-10-16T03:14:01.678Z,66.01
2018-10-16T03:16:29.735Z,65.80
2018-10-16T03:18:58.814Z,66.68
2018-10-16T03:21:27.372Z,66.74
2018-10-16T03:23:56.141Z,67.21
2018-10-16T03:26:24.308Z,67.83
2018-10-16T03:28:51.729Z,68.16
2018-10-16T03:31:19.100Z,68.23
2018-10-16T03:33:53.355Z,68.52
2018-10-16T03:36:20.759Z,68.19
2018-10-16T03:38:48.243Z,68.98
2018-10-16T03:41:15.638Z,69.25
2018-10-16T03:43:43.094Z,69.61
2018-10-16T03:46:10.555Z,69.70
2018-10-16T03:48:37.870Z,69.55
2018-10-16T03:51:05.846Z,69.42
2018-10-16T03:53:33.244Z,69.75
2018-10-16T03:56:00.606Z,69.99
2018-10-16T03:58:28.733Z,70.11
2018-10-16T04:00:56.024Z,69.65
2018-10-16T04:03:23.322Z,69.81
2018-10-16T04:05:50.682Z,69.74
2018-10-16T04:08:18.533Z,69.50
2018-10-16T04:10:45.825Z,69.49
2018-10-16T04:13:13.160Z,69.61
2018-10-16T04:15:40.473Z,69.47
2018-10-16T04:18:08.722Z,69.34
2018-10-16T04:20:36.031Z,69.91
2018-10-16T04:23:03.342Z,69.90
2018-10-16T04:25:30.621Z,69.53
2018-10-16T04:27:57.897Z,69.32
2018-10-16T04:30:25.241Z,68.97
2018-10-16T04:32:52.619Z,68.81
2018-10-16T04:35:20.781Z,68.52
2018-10-16T04:37:48.055Z,68.92
2018-10-16T04:40:15.356Z,68.52
2018-10-16T04:42:43.510Z,68.52
2018-10-16T04:45:11.577Z,68.96
2018-10-16T04:47:40.873Z,69.18
2018-10-16T04:50:09.055Z,67.67
2018-10-16T04:52:36.380Z,67.82
2018-10-16T04:55:04.121Z,67.24
2018-10-16T04:57:31.931Z,66.99
2018-10-16T04:59:59.135Z,67.32
2018-10-16T05:02:26.492Z,67.10
2018-10-16T05:04:59.417Z,66.37
2018-10-16T05:07:26.775Z,66.06
2018-10-16T05:09:54.007Z,65.62
2018-10-16T05:12:21.482Z,65.74
2018-10-16T05:14:48.815Z,66.37
2018-10-16T05:17:16.109Z,67.15
2018-10-16T05:19:43.468Z,67.24
2018-10-16T05:22:10.927Z,67.06
2018-10-16T05:24:38.241Z,67.88
2018-10-16T05:27:05.894Z,68.55
2018-10-16T05:29:33.324Z,68.53
2018-10-16T05:32:01.256Z,68.88
2018-10-16T05:34:28.585Z,69.28
2018-10-16T05:36:55.918Z,69.41
2018-10-16T05:39:49.803Z,69.57
2018-10-16T05:42:19.550Z,70.04
2018-10-16T05:44:47.138Z,70.72
2018-10-16T05:47:15.453Z,70.50
2018-10-16T05:49:43.571Z,70.66
2018-10-16T05:52:13.694Z,70.45
2018-10-16T05:54:42.608Z,70.83
2018-10-16T05:57:10.823Z,70.58
2018-10-16T05:59:38.923Z,70.16
2018-10-16T06:02:06.961Z,69.35
2018-10-16T06:04:34.342Z,69.52
2018-10-16T06:07:01.765Z,68.60
2018-10-16T06:09:29.223Z,68.37
2018-10-16T06:11:56.603Z,68.17
2018-10-16T06:14:24.096Z,67.54
2018-10-16T06:16:51.543Z,67.08
2018-10-16T06:19:18.876Z,66.19
2018-10-16T06:21:46.304Z,65.84
2018-10-16T06:24:14.931Z,65.15
2018-10-16T06:26:42.227Z,65.25
2018-10-16T06:29:10.237Z,64.30
2018-10-16T06:31:37.689Z,63.51
2018-10-16T06:34:05.070Z,63.93
2018-10-16T06:36:32.362Z,63.13
2018-10-16T06:38:59.813Z,63.16
2018-10-16T06:41:29.533Z,63.14
2018-10-16T06:43:59.213Z,62.29
2018-10-16T06:46:28.083Z,62.73
2018-10-16T06:48:56.643Z,61.51
2018-10-16T06:51:25.640Z,61.53
2018-10-16T06:53:53.480Z,61.72
2018-10-16T06:56:21.387Z,61.25
2018-10-16T06:58:48.821Z,60.80
2018-10-16T07:01:16.828Z,61.18
2018-10-16T07:03:44.335Z,60.58
2018-10-16T07:06:18.720Z,60.10
2018-10-16T07:08:46.441Z,60.50
2018-10-16T07:11:13.886Z,60.10
2018-10-16T07:13:42.133Z,60.71
2018-10-16T07:16:09.783Z,60.08
2018-10-16T07:18:37.240Z,60.59
2018-10-16T07:21:04.721Z,60.44
2018-10-16T07:23:32.286Z,60.42
2018-10-16T07:25:59.617Z,60.16
2018-10-16T07:28:27.027Z,60.61
2018-10-16T07:30:54.458Z,60.29
2018-10-16T07:33:22.092Z,60.20
2018-10-16T07:35:50.131Z,60.27
2018-10-16T07:38:17.619Z,59.82
2018-10-16T07:40:44.986Z,59.93
2018-10-16T07:43:12.419Z,59.95
2018-10-16T07:45:39.826Z,59.91
2018-10-16T07:48:07.205Z,59.70
2018-10-16T07:50:34.548Z,60.11
2018-10-16T07:53:02.156Z,59.58
2018-10-16T07:55:30.115Z,59.11
2018-10-16T07:57:58.668Z,59.25
2018-10-16T08:00:26.969Z,58.81
2018-10-16T08:02:55.041Z,58.66
2018-10-16T08:05:22.472Z,58.87
2018-10-16T08:07:49.933Z,58.78
2018-10-16T08:10:17.284Z,58.53
2018-10-16T08:12:44.833Z,58.66
2018-10-16T08:15:12.246Z,58.06
2018-10-16T08:17:40.789Z,58.03
2018-10-16T08:20:09.221Z,57.78
2018-10-16T08:22:36.889Z,57.44
2018-10-16T08:25:04.769Z,57.42
2018-10-16T08:27:32.377Z,57.31
2018-10-16T08:30:00.649Z,57.04
2018-10-16T08:32:28.109Z,56.82
2018-10-16T08:34:56.580Z,56.34
2018-10-16T08:37:35.565Z,55.84
2018-10-16T08:40:04.066Z,56.04
2018-10-16T08:43:40.359Z,55.81
2018-10-16T08:48:24.288Z,55.29
2018-10-16T08:51:03.316Z,55.02
2018-10-16T08:53:31.463Z,54.92
2018-10-16T08:55:58.820Z,54.65
2018-10-16T08:58:26.423Z,54.82
2018-10-16T09:00:53.849Z,54.45
2018-10-16T09:03:21.328Z,54.32
2018-10-16T09:05:49.358Z,54.30
2018-10-16T09:08:16.706Z,54.31
2018-10-16T09:10:44.440Z,54.05
2018-10-16T09:13:11.866Z,54.09
2018-10-16T09:15:39.304Z,53.60
2018-10-16T09:18:06.863Z,53.33
2018-10-16T09:20:34.247Z,52.68
2018-10-16T09:23:01.833Z,53.03
2018-10-16T09:25:29.210Z,52.03
2018-10-16T09:27:56.664Z,52.46
2018-10-16T09:30:24.151Z,52.68
2018-10-16T09:32:53.176Z,51.86
2018-10-16T09:35:20.745Z,52.45
2018-10-16T09:37:48.341Z,52.08
2018-10-16T09:40:15.840Z,52.05
2018-10-16T09:42:43.506Z,51.81
2018-10-16T09:45:11.146Z,52.03
2018-10-16T09:47:38.762Z,52.07
2018-10-16T09:50:08.279Z,51.22
2018-10-16T09:52:36.516Z,50.56
2018-10-16T09:55:04.585Z,51.10
2018-10-16T09:57:31.992Z,50.87
2018-10-16T10:00:00.619Z,50.49
2018-10-16T10:02:28.107Z,50.06
2018-10-16T10:04:55.646Z,48.96
2018-10-16T10:07:23.023Z,48.63
2018-10-16T10:09:50.481Z,48.79
2018-10-16T10:12:18.920Z,48.54
2018-10-16T10:14:46.289Z,47.05
2018-10-16T10:17:14.188Z,46.12
2018-10-16T10:19:41.617Z,45.16
2018-10-16T10:22:09.030Z,44.92
2018-10-16T10:24:36.429Z,44.70
2018-10-16T10:27:03.837Z,44.42
2018-10-16T10:29:32.035Z,44.18
2018-10-16T10:31:59.457Z,44.19
2018-10-16T10:34:27.211Z,44.90
2018-10-16T10:36:54.719Z,45.37
2018-10-16T10:39:22.391Z,45.38
2018-10-16T10:41:49.827Z,45.38
2018-10-16T10:44:17.246Z,45.56
2018-10-16T10:46:44.661Z,46.06
2018-10-16T10:49:13.229Z,46.21
2018-10-16T10:51:41.524Z,46.38
2018-10-16T10:54:08.679Z,46.65
2018-10-16T10:56:36.167Z,46.61
2018-10-16T10:59:03.672Z,46.45
2018-10-16T11:01:31.460Z,46.64
2018-10-16T11:03:59.097Z,46.60
2018-10-16T11:06:27.414Z,46.30
2018-10-16T11:08:55.860Z,46.61
2018-10-16T11:11:23.300Z,47.42
2018-10-16T11:13:50.696Z,46.70
2018-10-16T11:16:18.221Z,47.71
2018-10-16T11:18:45.725Z,48.07
2018-10-16T11:21:13.577Z,48.43
2018-10-16T11:23:41.039Z,48.24
2018-10-16T11:26:08.613Z,47.98
2018-10-16T11:28:36.212Z,47.59
2018-10-16T11:31:03.993Z,47.81
2018-10-16T11:33:31.399Z,46.85
2018-10-16T11:35:58.923Z,46.78
2018-10-16T11:38:26.430Z,45.97
2018-10-16T11:40:53.809Z,45.98
2018-10-16T11:43:21.263Z,46.54
2018-10-16T11:45:48.932Z,46.85
2018-10-16T11:48:16.593Z,46.49
2018-10-16T11:50:43.940Z,45.76
2018-10-16T11:53:11.358Z,44.73
2018-10-16T11:55:38.848Z,45.11
2018-10-16T11:58:07.659Z,44.54
2018-10-16T12:00:35.146Z,45.11
2018-10-16T12:03:03.092Z,44.88
2018-10-16T12:05:30.513Z,46.48
2018-10-16T12:08:00.688Z,46.37
2018-10-16T12:10:28.199Z,46.13
2018-10-16T12:12:55.783Z,46.66
2018-10-16T12:15:23.226Z,46.11
2018-10-16T12:17:58.273Z,45.25
2018-10-16T12:20:33.054Z,44.77
2018-10-16T12:23:00.596Z,45.62
2018-10-16T12:25:28.721Z,45.24
2018-10-16T12:27:56.271Z,45.62
2018-10-16T12:30:23.923Z,45.76
2018-10-16T12:32:51.482Z,45.05
2018-10-16T12:35:19.026Z,44.51
2018-10-16T12:37:46.536Z,43.76
2018-10-16T12:40:14.633Z,42.76
2018-10-16T12:42:42.133Z,43.94
2018-10-16T12:45:09.633Z,43.47
2018-10-16T12:47:37.209Z,43.38
2018-10-16T12:50:05.292Z,42.82
2018-10-16T12:52:34.690Z,42.36
2018-10-16T12:55:02.349Z,40.54
2018-10-16T12:57:29.944Z,41.82
2018-10-16T12:59:57.402Z,41.18
2018-10-16T13:02:24.856Z,41.34
2018-10-16T13:04:52.359Z,40.84
2018-10-16T13:07:32.850Z,40.60
2018-10-16T13:10:00.581Z,40.63
2018-10-16T13:12:29.425Z,40.20
2018-10-16T13:14:56.824Z,40.60
2018-10-16T13:17:24.610Z,40.60
2018-10-16T13:19:52.326Z,40.17
2018-10-16T13:22:20.046Z,40.07
2018-10-16T13:24:47.476Z,40.09
2018-10-16T13:27:16.089Z,40.07
2018-10-16T13:29:43.732Z,40.00
2018-10-16T13:32:11.063Z,40.23
2018-10-16T13:34:38.615Z,40.52
2018-10-16T13:37:05.985Z,39.95
2018-10-16T13:39:33.549Z,40.24
2018-10-16T13:42:01.145Z,40.66
2018-10-16T13:44:29.083Z,41.36
2018-10-16T13:46:56.853Z,42.31
2018-10-16T13:49:24.905Z,42.53
2018-10-16T13:51:52.852Z,41.70
2018-10-16T13:54:20.505Z,42.17
2018-10-16T13:56:49.022Z,42.39
2018-10-16T13:59:16.756Z,42.74
2018-10-16T14:01:44.239Z,43.87
2018-10-16T14:04:11.901Z,43.69
2018-10-16T14:06:39.422Z,43.79
2018-10-16T14:09:08.829Z,43.74
2018-10-16T14:11:36.467Z,45.25
2018-10-16T14:14:04.910Z,44.34
2018-10-16T14:16:32.429Z,44.67
2018-10-16T14:18:59.851Z,45.29
2018-10-16T14:21:27.244Z,45.80
2018-10-16T14:23:55.034Z,45.94
2018-10-16T14:26:22.502Z,46.36
2018-10-16T14:28:50.419Z,48.06
2018-10-16T14:31:18.596Z,48.19
2018-10-16T14:33:46.671Z,48.22
2018-10-16T14:36:14.138Z,48.00
2018-10-16T14:38:42.012Z,47.93
2018-10-16T14:41:09.403Z,48.75
2018-10-16T14:43:36.745Z,48.71
2018-10-16T14:46:04.870Z,48.80
2018-10-16T14:48:32.311Z,49.53
2018-10-16T14:51:00.251Z,50.63
2018-10-16T14:56:02.001Z,52.08
2018-10-16T14:58:29.326Z,52.52
2018-10-16T15:00:56.680Z,53.92
2018-10-16T15:03:25.588Z,54.51
2018-10-16T15:05:53.130Z,54.53
2018-10-16T15:08:20.594Z,54.43
2018-10-16T15:10:48.113Z,55.18
2018-10-16T15:13:15.584Z,54.83
2018-10-16T15:15:43.522Z,55.24
2018-10-16T15:18:11.310Z,56.06
2018-10-16T15:20:38.779Z,56.78
2018-10-16T15:23:06.213Z,57.40
2018-10-16T15:25:33.584Z,57.81
2018-10-16T15:28:01.194Z,58.01
2018-10-16T15:30:28.629Z,57.98
2018-10-16T15:32:56.462Z,58.37
2018-10-16T15:35:24.131Z,58.22
2018-10-16T15:37:51.538Z,57.78
2018-10-16T15:40:19.021Z,57.86
2018-10-16T15:42:46.511Z,57.90
2018-10-16T15:45:14.119Z,57.78
2018-10-16T15:47:42.577Z,58.11
2018-10-16T15:50:10.777Z,58.57
2018-10-16T15:52:38.520Z,59.41
2018-10-16T15:55:06.464Z,59.53
2018-10-16T15:57:34.032Z,59.96
2018-10-16T16:00:01.530Z,60.50
2018-10-16T16:02:29.045Z,60.90
2018-10-16T16:04:56.763Z,61.13
2018-10-16T16:07:24.221Z,61.38
2018-10-16T16:09:51.709Z,61.15
2018-10-16T16:17:29.038Z,62.14
2018-10-16T16:19:57.412Z,61.90
2018-10-16T16:22:25.171Z,62.53
2018-10-16T16:24:55.944Z,62.37
2018-10-16T16:27:26.585Z,63.12
2018-10-16T16:29:56.784Z,63.59
2018-10-16T16:32:24.665Z,63.56
2018-10-16T16:34:56.137Z,64.23
2018-10-16T16:37:24.617Z,64.63
2018-10-16T16:39:52.325Z,64.80
2018-10-16T16:42:20.673Z,65.42
2018-10-16T16:44:48.545Z,65.55
2018-10-16T16:47:16.212Z,65.47
2018-10-16T16:49:43.670Z,65.51
2018-10-16T16:52:11.132Z,65.92
2018-10-16T16:54:38.470Z,65.99
2018-10-16T16:57:06.808Z,65.76
2018-10-16T16:59:34.854Z,65.92
2018-10-16T17:02:03.158Z,66.29
2018-10-16T17:04:31.125Z,66.37
2018-10-16T17:07:00.110Z,66.83
2018-10-16T17:09:33.333Z,66.89
2018-10-16T17:12:05.359Z,67.45
2018-10-16T17:14:33.041Z,67.69
2018-10-16T17:17:00.582Z,67.54
2018-10-16T17:19:40.224Z,68.43
2018-10-16T17:22:07.815Z,67.97
2018-10-16T17:24:35.493Z,68.58
2018-10-16T17:27:12.640Z,68.12
2018-10-16T17:29:47.714Z,68.64
2018-10-16T17:32:15.663Z,69.08
2018-10-16T17:34:45.481Z,69.25
2018-10-16T17:37:28.471Z,69.25
2018-10-16T17:39:55.952Z,69.63
2018-10-16T17:42:23.699Z,70.05
2018-10-16T17:44:51.291Z,69.92
2018-10-16T17:47:18.651Z,69.64
2018-10-16T17:49:46.026Z,70.23
2018-10-16T17:52:13.545Z,70.53
2018-10-16T17:54:41.389Z,70.77
2018-10-16T17:57:08.875Z,70.43
2018-10-16T17:59:40.713Z,70.82
2018-10-16T18:02:09.258Z,71.26
2018-10-16T18:04:36.732Z,72.08
2018-10-16T18:07:04.931Z,72.33
2018-10-16T18:09:32.804Z,72.85
2018-10-16T18:12:00.883Z,72.73
2018-10-16T18:14:28.623Z,72.74
2018-10-16T18:16:56.070Z,72.96
2018-10-16T18:19:24.082Z,73.35
2018-10-16T18:21:51.846Z,73.58
2018-10-16T18:24:19.982Z,73.66
2018-10-16T18:26:48.020Z,73.82
2018-10-16T18:29:15.976Z,74.31
2018-10-16T18:31:43.742Z,74.20
2018-10-16T18:34:12.605Z,75.51
2018-10-16T18:36:42.324Z,76.00
2018-10-16T18:39:09.903Z,75.48
2018-10-16T18:41:38.461Z,75.87
2018-10-16T18:44:06.191Z,76.00
2018-10-16T18:46:34.588Z,75.82
2018-10-16T18:49:03.114Z,75.68
2018-10-16T18:51:31.428Z,76.01
2018-10-16T18:53:59.723Z,76.03
2018-10-16T18:56:27.753Z,75.96
2018-10-16T18:58:56.123Z,75.94
2018-10-16T19:01:24.173Z,76.08
2018-10-16T19:03:51.532Z,76.19
2018-10-16T19:06:18.869Z,75.75
2018-10-16T19:08:49.437Z,75.78
2018-10-16T19:11:16.856Z,76.18
2018-10-16T19:13:47.665Z,76.17
2018-10-16T19:16:15.152Z,76.84
2018-10-16T19:18:42.702Z,77.09
2018-10-16T19:21:18.742Z,76.97
2018-10-16T19:23:51.668Z,76.70
2018-10-16T19:26:24.892Z,76.88
2018-10-16T19:28:55.490Z,77.08
2018-10-16T19:31:22.979Z,76.86
2018-10-16T19:33:52.138Z,76.37
2018-10-16T19:36:26.600Z,76.67
2018-10-16T19:39:00.846Z,77.22
2018-10-16T19:41:31.317Z,77.20
2018-10-16T19:43:58.934Z,76.82
2018-10-16T19:46:29.357Z,77.51
2018-10-16T19:48:57.980Z,77.26
2018-10-16T19:51:29.979Z,77.54
2018-10-16T19:53:57.408Z,77.54
2018-10-16T19:56:27.524Z,76.91
2018-10-16T19:58:55.165Z,76.81
2018-10-16T20:01:23.454Z,76.16
2018-10-16T20:03:52.351Z,75.91
2018-10-16T20:06:19.728Z,75.42
2018-10-16T20:08:47.126Z,75.25
2018-10-16T20:11:14.342Z,75.46
2018-10-16T20:13:41.999Z,75.35
2018-10-16T20:16:09.295Z,75.32
2018-10-16T20:18:36.583Z,74.91
2018-10-16T20:21:04.162Z,75.58
2018-10-16T20:23:31.641Z,75.07
2018-10-16T20:25:58.951Z,75.17
2018-10-16T20:28:26.177Z,75.93
2018-10-16T20:30:53.556Z,75.73
2018-10-16T20:33:20.804Z,75.70
2018-10-16T20:35:48.083Z,75.67
2018-10-16T20:38:15.447Z,75.50
2018-10-16T20:40:42.792Z,75.97
2018-10-16T20:43:10.165Z,76.41
2018-10-16T20:45:37.450Z,77.29
2018-10-16T20:48:05.108Z,77.36
2018-10-16T20:50:32.417Z,77.46
2018-10-16T20:52:59.745Z,76.54
2018-10-16T20:55:27.146Z,76.52
2018-10-16T20:57:54.493Z,76.79
2018-10-16T21:00:22.576Z,76.55
2018-10-16T21:02:49.879Z,76.39
2018-10-16T21:05:17.473Z,76.48
2018-10-16T21:07:44.546Z,76.14
2018-10-16T21:10:12.529Z,76.41
2018-10-16T21:12:39.872Z,77.00
2018-10-16T21:15:07.791Z,77.31
2018-10-16T21:17:35.006Z,77.77
2018-10-16T21:20:02.524Z,77.43
2018-10-16T21:22:29.792Z,77.82
2018-10-16T21:24:57.102Z,77.63
2018-10-16T21:27:24.344Z,77.33
2018-10-16T21:29:51.650Z,77.21
2018-10-16T21:32:18.968Z,77.10
2018-10-16T21:34:46.438Z,77.10
2018-10-16T21:37:14.006Z,77.64
2018-10-16T21:39:41.358Z,77.72
2018-10-16T21:42:08.671Z,77.62
2018-10-16T21:44:36.073Z,77.58
2018-10-16T21:47:03.424Z,77.95
2018-10-16T21:49:30.675Z,78.22
2018-10-16T21:51:58.238Z,78.36
2018-10-16T21:54:25.742Z,78.72
2018-10-16T21:56:53.004Z,78.66
2018-10-16T21:59:20.389Z,78.18
2018-10-16T22:01:53.360Z,78.51
2018-10-16T22:04:20.629Z,79.15
2018-10-16T22:06:48.095Z,79.20
2018-10-16T22:09:15.517Z,79.65
2018-10-16T22:11:43.634Z,80.28
2018-10-16T22:14:11.238Z,80.54
2018-10-16T22:16:38.696Z,80.76
2018-10-16T22:19:06.347Z,80.66
2018-10-16T22:21:33.686Z,81.93
2018-10-16T22:24:01.269Z,81.45
2018-10-16T22:26:28.532Z,82.29
2018-10-16T22:28:55.859Z,82.10
2018-10-16T22:31:23.197Z,82.60
2018-10-16T22:33:50.470Z,81.81
2018-10-16T22:36:17.721Z,81.42
2018-10-16T22:38:44.973Z,82.39
2018-10-16T22:41:12.250Z,82.27
2018-10-16T22:43:39.535Z,83.55
2018-10-16T22:46:06.976Z,83.75
2018-10-16T22:48:34.341Z,84.19
2018-10-16T22:51:01.749Z,83.63
2018-10-16T22:53:29.116Z,83.04
2018-10-16T22:55:56.386Z,83.23
2018-10-16T22:58:23.654Z,83.09
2018-10-16T23:00:51.118Z,82.86
2018-10-16T23:03:18.380Z,82.34
2018-10-16T23:05:45.648Z,82.42
2018-10-16T23:08:12.930Z,81.79
2018-10-16T23:10:40.929Z,82.17
2018-10-16T23:13:08.243Z,81.57
2018-10-16T23:15:36.488Z,81.29
2018-10-16T23:18:04.426Z,80.66
2018-10-16T23:20:32.291Z,81.61
2018-10-16T23:23:00.352Z,81.62
2018-10-16T23:25:27.700Z,82.59
2018-10-16T23:27:55.112Z,82.67
2018-10-16T23:30:22.512Z,82.55
2018-10-16T23:32:49.974Z,82.11
2018-10-16T23:35:17.482Z,82.36
2018-10-16T23:37:44.888Z,81.99
2018-10-16T23:40:12.193Z,81.44
2018-10-16T23:42:39.621Z,81.06
2018-10-16T23:45:06.961Z,80.88
2018-10-16T23:47:34.269Z,81.24
2018-10-16T23:50:01.579Z,80.87
2018-10-16T23:52:28.879Z,80.56
2018-10-16T23:54:56.335Z,80.56
2018-10-16T23:57:23.821Z,80.51
2018-10-16T23:59:51.982Z,80.94
